This is the latest recevied weather packets stored in our database for station/object KP4CRN. If no packets are shown the sender has not sent any weather packets the latest 10 day(s).
| Time | Temp. | Humidity | Pressure | Rain* | Wind** | Luminosity | Snow |
|---|---|---|---|---|---|---|---|
| 1777650597 | 30.56° C | 75% | 1015.6 hPa | 0 mm | - | 226 W/m² | - |
| 1777650294 | 31.11° C | 72% | 1015.3 hPa | 0 mm | - | 358 W/m² | - |
| 1777649991 | 31.11° C | 73% | 1015.3 hPa | 0 mm | - | 789 W/m² | - |
| 1777649689 | 31.11° C | 74% | 1015.5 hPa | 0 mm | - | 888 W/m² | - |
| 1777649384 | 31.11° C | 74% | 1015.4 hPa | 0 mm | - | 915 W/m² | - |
| 1777649082 | 30.56° C | 76% | 1015.5 hPa | 0 mm | - | 743 W/m² | - |
| 1777648780 | 31.11° C | 74% | 1015.7 hPa | 0 mm | - | 981 W/m² | - |
| 1777648477 | 31.11° C | 71% | 1015.8 hPa | 0 mm | - | 937 W/m² | - |
| 1777648173 | 31.11° C | 71% | 1015.8 hPa | 0 mm | - | 222 W/m² | - |
| 1777647868 | 30.56° C | 73% | 1015.7 hPa | 0 mm | - | 720 W/m² | - |
| 1777647565 | 30° C | 74% | 1015.8 hPa | 0 mm | - | 499 W/m² | - |
| 1777647262 | 30.56° C | 71% | 1015.8 hPa | 0 mm | - | 692 W/m² | - |
| 1777646960 | 30° C | 75% | 1015.8 hPa | 0 mm | - | 390 W/m² | - |
| 1777646655 | 30.56° C | 75% | 1015.7 hPa | 0 mm | - | 625 W/m² | - |
| 1777646351 | 30° C | 76% | 1015.9 hPa | 0 mm | - | 448 W/m² | - |
| 1777646047 | 30° C | 76% | 1015.8 hPa | 0 mm | - | 217 W/m² | - |
| 1777645744 | 30.56° C | 75% | 1015.8 hPa | 0 mm | - | 438 W/m² | - |
| 1777645441 | 30.56° C | 75% | 1016 hPa | 0 mm | - | 608 W/m² | - |
| 1777645137 | 30° C | 77% | 1016.1 hPa | 0 mm | - | 693 W/m² | - |
| 1777644834 | 29.44° C | 77% | 1016 hPa | 0 mm | - | 334 W/m² | - |
| 1777644532 | 30° C | 77% | 1016.1 hPa | 0 mm | - | 215 W/m² | - |
| 1777644227 | 30.56° C | 76% | 1016 hPa | 0 mm | - | 590 W/m² | - |
| 1777643924 | 30° C | 76% | 1015.9 hPa | 0 mm | - | 686 W/m² | - |
| 1777643622 | 28.89° C | 80% | 1016.1 hPa | 0 mm | - | 615 W/m² | - |
| 1777643319 | 29.44° C | 80% | 1015.9 hPa | 0 mm | - | 526 W/m² | - |
* Rain latest hour (hover to see other rain measurements)
** Current wind speed in m/s (hover to see current wind gust speed)